Estación Meteorológica Peña el Pijo (Robertgarden) [ 08/17/18 05:40:21 CEST ]

Fecha Hora Presion(HPa) Temp (°C) Humedad % Rocio (°C) Viento ( m/s) Direccion Lluvia 1Hora(mm) Lluvia 24H(mm) LLuvia Total(mm)
2018-Jun-04 01:01:46 1008.300 11.2 79 7.7         261.59
2018-Jun-04 02:01:55 1007.900 11.2 79 7.7         261.59
2018-Jun-04 03:02:38 1007.500 10.0 79 6.5         261.59
2018-Jun-04 04:02:04 1006.900 9.8 81 6.7         261.59
2018-Jun-04 05:02:19 1006.700 10.2 82 7.2         261.59
2018-Jun-04 06:02:04 1006.400 10.5 81 7.4         261.59
2018-Jun-04 07:01:38 1006.900 8.8 82 5.9         261.59
2018-Jun-04 08:01:47 1006.900 11.4 85 8.9         261.59
2018-Jun-04 09:01:48 1007.000 16.4 72 11.4         261.59
2018-Jun-04 10:01:46 1007.000 17.8 57 9.1         261.59
2018-Jun-04 11:01:45 1006.900 20.1 51 9.7         261.59
2018-Jun-04 12:01:37 1007.000 22.1 45 9.5 2.0 NNE     261.59
2018-Jun-04 13:01:40 1006.500 23.2 42 9.5         261.59
2018-Jun-04 14:01:45 1006.500 23.4 42 9.9 2.5 NW     261.59
2018-Jun-04 15:01:39 1006.100 24.8 37 9.1         261.59
2018-Jun-04 16:01:48 1005.800 25.8 33 8.2 0.2 WNW     261.59
2018-Jun-04 17:01:32 1005.500 25.8 31 7.4         261.59
2018-Jun-04 18:01:47 1005.700 24.4 33 7.0         261.59
2018-Jun-04 19:01:51 1005.500 21.0 39 6.5         261.59
2018-Jun-04 20:01:43 1005.600 19.9 42 6.6         261.59
2018-Jun-04 21:01:44 1005.600 18.1 48 6.8         261.59
2018-Jun-04 22:01:40 1006.000 16.2 53 6.6         261.59
2018-Jun-04 23:01:48 1006.800 15.1 57 6.6         261.59

Temperatura Máxima:25°    Temperatura Mínima:
Presión Máxima:1008.300 Hpa    Presión Mínima:1005.500 Hpa


Volver